createdAt,value
2022-08-30T00:00:20.586Z,15.42
2022-08-30T00:01:33.779Z,15.41
2022-08-30T00:02:39.327Z,15.40
2022-08-30T00:03:47.126Z,15.39
2022-08-30T00:04:49.510Z,15.38
2022-08-30T00:05:51.797Z,15.38
2022-08-30T00:06:58.551Z,15.36
2022-08-30T00:08:00.964Z,15.35
2022-08-30T00:09:03.484Z,15.35
2022-08-30T00:10:06.391Z,15.32
2022-08-30T00:11:12.605Z,15.30
2022-08-30T00:12:14.818Z,15.31
2022-08-30T00:13:18.234Z,15.28
2022-08-30T00:14:20.722Z,15.28
2022-08-30T00:15:24.289Z,15.26
2022-08-30T00:16:26.884Z,15.25
2022-08-30T00:17:29.116Z,15.24
2022-08-30T00:18:31.805Z,15.22
2022-08-30T00:19:34.052Z,15.22
2022-08-30T00:20:38.010Z,15.20
2022-08-30T00:21:43.701Z,15.17
2022-08-30T00:22:46.451Z,15.16
2022-08-30T00:23:48.745Z,15.15
2022-08-30T00:24:51.043Z,15.14
2022-08-30T00:25:53.279Z,15.13
2022-08-30T00:26:55.512Z,15.12
2022-08-30T00:27:58.095Z,15.10
2022-08-30T00:29:00.317Z,15.09
2022-08-30T00:30:02.821Z,15.09
2022-08-30T00:31:08.915Z,15.07
2022-08-30T00:32:12.519Z,15.07
2022-08-30T00:33:15.369Z,15.05
2022-08-30T00:34:18.040Z,15.05
2022-08-30T00:35:20.718Z,15.04
2022-08-30T00:36:22.945Z,15.03
2022-08-30T00:37:25.376Z,15.02
2022-08-30T00:38:27.638Z,15.01
2022-08-30T00:39:30.386Z,15.01
2022-08-30T00:40:33.538Z,14.99
2022-08-30T00:41:35.838Z,14.98
2022-08-30T00:42:39.592Z,14.98
2022-08-30T00:43:41.873Z,14.97
2022-08-30T00:44:44.927Z,14.97
2022-08-30T00:45:47.416Z,14.96
2022-08-30T00:46:52.469Z,14.95
2022-08-30T00:47:54.915Z,14.97
2022-08-30T00:49:07.265Z,14.94
2022-08-30T00:50:10.417Z,14.95
2022-08-30T00:51:15.582Z,14.94
2022-08-30T00:52:18.987Z,14.93
2022-08-30T00:53:25.858Z,14.93
2022-08-30T00:54:29.556Z,14.93
2022-08-30T00:55:33.330Z,14.92
2022-08-30T00:56:36.290Z,14.91
2022-08-30T00:57:40.813Z,14.91
2022-08-30T00:58:47.677Z,14.91
2022-08-30T00:59:50.500Z,14.91
2022-08-30T01:00:55.385Z,14.89
2022-08-30T01:01:58.140Z,14.89
2022-08-30T01:03:00.490Z,14.88
2022-08-30T01:04:04.151Z,14.87
2022-08-30T01:05:10.896Z,14.86
2022-08-30T01:06:18.567Z,14.86
2022-08-30T01:07:20.833Z,14.85
2022-08-30T01:08:26.283Z,14.84
2022-08-30T01:09:28.539Z,14.84
2022-08-30T01:10:30.874Z,14.82
2022-08-30T01:11:37.533Z,14.80
2022-08-30T01:12:40.446Z,14.79
2022-08-30T01:13:43.900Z,14.77
2022-08-30T01:14:46.922Z,14.76
2022-08-30T01:15:53.834Z,14.76
2022-08-30T01:16:58.079Z,14.74
2022-08-30T01:18:11.614Z,14.73
2022-08-30T01:19:49.505Z,14.70
2022-08-30T01:21:42.863Z,14.68
2022-08-30T01:22:56.830Z,14.66
2022-08-30T01:24:00.784Z,14.65
2022-08-30T01:25:08.066Z,14.64
2022-08-30T01:26:14.172Z,14.62
2022-08-30T01:27:21.188Z,14.60
2022-08-30T01:28:26.357Z,14.60
2022-08-30T01:29:29.451Z,14.59
2022-08-30T01:30:39.083Z,14.55
2022-08-30T01:31:41.395Z,14.54
2022-08-30T01:32:47.284Z,14.54
2022-08-30T01:33:52.353Z,14.53
2022-08-30T01:34:56.283Z,14.52
2022-08-30T01:36:02.056Z,14.51
2022-08-30T01:37:04.398Z,14.51
2022-08-30T01:38:06.699Z,14.51
2022-08-30T01:39:10.102Z,14.49
2022-08-30T01:40:15.437Z,14.47
2022-08-30T01:41:22.008Z,14.47
2022-08-30T01:42:25.169Z,14.47
2022-08-30T01:43:30.197Z,14.47
2022-08-30T01:44:32.387Z,14.46
2022-08-30T01:45:34.781Z,14.46
2022-08-30T01:46:45.731Z,14.45
2022-08-30T01:47:47.949Z,14.44
2022-08-30T01:48:53.984Z,14.45
2022-08-30T01:49:56.600Z,14.45
2022-08-30T01:50:59.154Z,14.44
2022-08-30T01:52:01.587Z,14.44
2022-08-30T01:53:05.683Z,14.43
2022-08-30T01:54:09.833Z,14.44
2022-08-30T01:55:15.150Z,14.42
2022-08-30T01:56:21.096Z,14.42
2022-08-30T01:57:24.025Z,14.42
2022-08-30T01:58:26.305Z,14.40
2022-08-30T01:59:31.332Z,14.41
2022-08-30T02:00:33.799Z,14.40
2022-08-30T02:01:37.307Z,14.39
2022-08-30T02:02:40.082Z,14.38
2022-08-30T02:03:44.002Z,14.38
2022-08-30T02:04:46.354Z,14.38
2022-08-30T02:05:48.609Z,14.37
2022-08-30T02:06:51.355Z,14.36
2022-08-30T02:07:53.977Z,14.35
2022-08-30T02:08:56.181Z,14.34
2022-08-30T02:09:58.412Z,14.33
2022-08-30T02:11:01.025Z,14.32
2022-08-30T02:12:07.498Z,14.33
2022-08-30T02:13:09.726Z,14.32
2022-08-30T02:14:11.927Z,14.30
2022-08-30T02:15:14.205Z,14.29
2022-08-30T02:16:24.303Z,14.29
2022-08-30T02:17:27.104Z,14.28
2022-08-30T02:18:29.385Z,14.28
2022-08-30T02:19:32.192Z,14.27
2022-08-30T02:20:34.380Z,14.26
2022-08-30T02:21:37.147Z,14.25
2022-08-30T02:22:39.569Z,14.25
2022-08-30T02:23:50.855Z,14.22
2022-08-30T02:24:53.089Z,14.22
2022-08-30T02:25:55.403Z,14.21
2022-08-30T02:27:00.729Z,14.20
2022-08-30T02:28:03.863Z,14.20
2022-08-30T02:29:09.750Z,14.19
2022-08-30T02:30:12.820Z,14.17
2022-08-30T02:31:15.705Z,14.16
2022-08-30T02:32:21.617Z,14.15
2022-08-30T02:33:23.995Z,14.13
2022-08-30T02:34:26.322Z,14.13
2022-08-30T02:35:31.867Z,14.13
2022-08-30T02:36:34.070Z,14.10
2022-08-30T02:37:36.805Z,14.09
2022-08-30T02:38:39.172Z,14.09
2022-08-30T02:39:42.163Z,14.07
2022-08-30T02:40:53.475Z,14.07
2022-08-30T02:41:58.335Z,14.05
2022-08-30T02:43:01.166Z,14.04
2022-08-30T02:44:03.388Z,14.05
2022-08-30T02:45:08.981Z,14.04
2022-08-30T02:46:12.357Z,14.03
2022-08-30T02:47:16.890Z,14.02
2022-08-30T02:48:19.397Z,14.00
2022-08-30T02:49:36.981Z,13.99
2022-08-30T02:50:49.785Z,13.98
2022-08-30T02:51:54.272Z,13.96
2022-08-30T02:52:58.754Z,13.96
2022-08-30T02:54:00.941Z,13.96
2022-08-30T02:55:04.744Z,13.94
2022-08-30T02:56:07.400Z,13.93
2022-08-30T02:57:20.086Z,13.93
2022-08-30T02:58:22.703Z,13.92
2022-08-30T02:59:26.588Z,13.90
2022-08-30T03:00:32.024Z,13.90
2022-08-30T03:01:36.623Z,13.90
2022-08-30T03:02:40.517Z,13.88
2022-08-30T03:03:47.196Z,13.88
2022-08-30T03:04:50.257Z,13.88
2022-08-30T03:05:52.510Z,13.87
2022-08-30T03:06:55.165Z,13.86
2022-08-30T03:07:57.521Z,13.85
2022-08-30T03:09:00.143Z,13.85
2022-08-30T03:10:02.474Z,13.83
2022-08-30T03:11:04.770Z,13.82
2022-08-30T03:12:07.997Z,13.81
2022-08-30T03:13:10.369Z,13.82
2022-08-30T03:14:15.643Z,13.81
2022-08-30T03:15:22.671Z,13.79
2022-08-30T03:16:24.988Z,13.78
2022-08-30T03:17:27.411Z,13.78
2022-08-30T03:18:29.711Z,13.76
2022-08-30T03:19:32.481Z,13.75
2022-08-30T03:20:40.810Z,13.75
2022-08-30T03:21:46.188Z,13.75
2022-08-30T03:22:49.118Z,13.74
2022-08-30T03:23:54.053Z,13.74
2022-08-30T03:25:02.177Z,13.74
2022-08-30T03:26:06.642Z,13.73
2022-08-30T03:27:09.077Z,13.71
2022-08-30T03:28:11.369Z,13.72
2022-08-30T03:29:13.661Z,13.70
2022-08-30T03:30:17.197Z,13.70
2022-08-30T03:31:19.601Z,13.67
2022-08-30T03:32:22.305Z,13.67
2022-08-30T03:33:25.148Z,13.65
2022-08-30T03:34:28.069Z,13.63
2022-08-30T03:35:33.149Z,13.61
2022-08-30T03:36:35.547Z,13.61
2022-08-30T03:37:37.824Z,13.61
2022-08-30T03:38:40.324Z,13.59
2022-08-30T03:39:45.115Z,13.58
2022-08-30T03:40:48.339Z,13.58
2022-08-30T03:41:51.907Z,13.54
2022-08-30T03:42:54.276Z,13.52
2022-08-30T03:43:58.866Z,13.53
2022-08-30T03:45:04.861Z,13.52
2022-08-30T03:46:07.931Z,13.51
2022-08-30T03:47:10.247Z,13.48
2022-08-30T03:48:15.330Z,13.48
2022-08-30T03:49:18.428Z,13.47
2022-08-30T03:50:20.643Z,13.46
2022-08-30T03:51:24.017Z,13.46
2022-08-30T03:52:29.506Z,13.45
2022-08-30T03:53:31.719Z,13.44
2022-08-30T03:54:33.961Z,13.43
2022-08-30T03:55:36.193Z,13.41
2022-08-30T03:56:38.466Z,13.41
2022-08-30T03:57:43.539Z,13.40
2022-08-30T03:58:46.020Z,13.38
2022-08-30T03:59:54.170Z,13.38
2022-08-30T04:00:59.478Z,13.37
2022-08-30T04:02:01.791Z,13.38
2022-08-30T04:03:04.049Z,13.36
2022-08-30T04:04:06.295Z,13.36
2022-08-30T04:05:10.751Z,13.36
2022-08-30T04:06:25.310Z,13.34
2022-08-30T04:07:27.508Z,13.34
2022-08-30T04:08:29.750Z,13.33
2022-08-30T04:09:31.953Z,13.32
2022-08-30T04:10:37.787Z,13.31
2022-08-30T04:11:43.039Z,13.31
2022-08-30T04:12:49.563Z,13.29
2022-08-30T04:13:52.368Z,13.30
2022-08-30T04:14:54.813Z,13.28
2022-08-30T04:16:00.384Z,13.29
2022-08-30T04:17:02.640Z,13.28
2022-08-30T04:18:07.410Z,13.26
2022-08-30T04:19:09.646Z,13.27
2022-08-30T04:20:11.940Z,13.25
2022-08-30T04:21:14.359Z,13.26
2022-08-30T04:22:16.754Z,13.25
2022-08-30T04:23:19.240Z,13.24
2022-08-30T04:24:21.417Z,13.23
2022-08-30T04:25:23.854Z,13.23
2022-08-30T04:26:29.343Z,13.21
2022-08-30T04:27:32.498Z,13.22
2022-08-30T04:28:35.408Z,13.22
2022-08-30T04:29:40.212Z,13.21
2022-08-30T04:30:44.316Z,13.21
2022-08-30T04:31:49.400Z,13.21
2022-08-30T04:32:54.484Z,13.21
2022-08-30T04:34:00.344Z,13.21
2022-08-30T04:35:02.681Z,13.21
2022-08-30T04:36:06.761Z,13.21
2022-08-30T04:37:09.994Z,13.20
2022-08-30T04:38:17.432Z,13.18
2022-08-30T04:39:29.375Z,13.19
2022-08-30T04:40:31.699Z,13.20
2022-08-30T04:41:36.912Z,13.20
2022-08-30T04:42:39.157Z,13.19
2022-08-30T04:43:41.366Z,13.19
2022-08-30T04:44:43.627Z,13.18
2022-08-30T04:45:46.716Z,13.20
2022-08-30T04:46:49.355Z,13.20
2022-08-30T04:47:51.812Z,13.20
2022-08-30T04:48:54.476Z,13.19
2022-08-30T04:50:04.362Z,13.20
2022-08-30T04:51:17.412Z,13.18
2022-08-30T04:52:19.786Z,13.19
2022-08-30T04:53:24.376Z,13.19
2022-08-30T04:54:30.111Z,13.21
2022-08-30T04:55:32.312Z,13.22
2022-08-30T04:56:35.206Z,13.23
2022-08-30T04:57:44.389Z,13.23
2022-08-30T04:58:48.808Z,13.23
2022-08-30T04:59:51.358Z,13.26
2022-08-30T05:00:56.259Z,13.27
2022-08-30T05:01:58.505Z,13.28
2022-08-30T05:03:00.884Z,13.30
2022-08-30T05:04:04.305Z,13.32
2022-08-30T05:05:25.902Z,13.35
2022-08-30T05:06:31.231Z,13.38
2022-08-30T05:07:34.386Z,13.40
2022-08-30T05:08:36.605Z,13.43
2022-08-30T05:09:38.781Z,13.46
2022-08-30T05:10:45.077Z,13.52
2022-08-30T05:11:47.599Z,13.57
2022-08-30T05:12:50.073Z,13.61
2022-08-30T05:13:52.367Z,13.65
2022-08-30T05:14:54.647Z,13.69
2022-08-30T05:15:56.930Z,13.74
2022-08-30T05:16:59.180Z,13.78
2022-08-30T05:18:01.698Z,13.83
2022-08-30T05:19:04.398Z,13.88
2022-08-30T05:20:08.600Z,13.94
2022-08-30T05:21:29.214Z,14.00
2022-08-30T05:22:31.379Z,14.06
2022-08-30T05:23:36.767Z,14.12
2022-08-30T05:24:38.975Z,14.18
2022-08-30T05:25:42.926Z,14.24
2022-08-30T05:26:45.169Z,14.29
2022-08-30T05:27:47.547Z,14.35
2022-08-30T05:28:50.202Z,14.41
2022-08-30T05:29:52.409Z,14.46
2022-08-30T05:30:54.645Z,14.52
2022-08-30T05:31:57.429Z,14.61
2022-08-30T05:33:03.129Z,14.68
2022-08-30T05:34:05.430Z,14.73
2022-08-30T05:35:10.066Z,14.79
2022-08-30T05:36:13.811Z,14.87
2022-08-30T05:37:15.992Z,14.94
2022-08-30T05:38:18.470Z,15.01
2022-08-30T05:39:21.124Z,15.08
2022-08-30T05:40:24.396Z,15.17
2022-08-30T05:41:27.432Z,15.24
2022-08-30T05:42:29.654Z,15.33
2022-08-30T05:43:32.201Z,15.42
2022-08-30T05:44:34.380Z,15.51
2022-08-30T05:45:38.629Z,15.60
2022-08-30T05:46:45.755Z,15.69
2022-08-30T05:47:48.197Z,15.79
2022-08-30T05:48:53.445Z,15.91
2022-08-30T05:49:56.186Z,16.03
2022-08-30T05:51:04.352Z,16.13
2022-08-30T05:52:16.142Z,16.23
2022-08-30T05:53:18.325Z,16.36
2022-08-30T05:54:20.592Z,16.46
2022-08-30T05:55:22.768Z,16.57
2022-08-30T05:56:31.417Z,16.70
2022-08-30T05:57:42.382Z,16.83
2022-08-30T05:58:47.207Z,16.94
2022-08-30T05:59:52.043Z,17.06
2022-08-30T06:00:54.239Z,17.17
2022-08-30T06:01:58.214Z,17.30
2022-08-30T06:03:02.556Z,17.42
2022-08-30T06:04:06.470Z,17.55
2022-08-30T06:05:14.756Z,17.67
2022-08-30T06:06:17.042Z,17.80
2022-08-30T06:07:22.920Z,17.93
2022-08-30T06:08:25.823Z,18.06
2022-08-30T06:09:28.061Z,18.18
2022-08-30T06:10:30.271Z,18.32
2022-08-30T06:11:33.888Z,18.44
2022-08-30T06:12:39.311Z,18.59
2022-08-30T06:13:41.849Z,18.71
2022-08-30T06:14:44.335Z,18.84
2022-08-30T06:15:47.242Z,18.98
2022-08-30T06:16:49.680Z,19.10
2022-08-30T06:17:52.074Z,19.23
2022-08-30T06:18:57.104Z,19.38
2022-08-30T06:19:59.303Z,19.49
2022-08-30T06:21:01.593Z,19.65
2022-08-30T06:22:03.834Z,19.77
2022-08-30T06:23:06.048Z,19.90
2022-08-30T06:24:13.175Z,20.04
2022-08-30T06:25:16.486Z,20.18
2022-08-30T06:26:23.131Z,20.31
2022-08-30T06:27:25.431Z,20.45
2022-08-30T06:28:27.675Z,20.57
2022-08-30T06:29:29.925Z,20.72
2022-08-30T06:30:32.826Z,20.84
2022-08-30T06:31:35.205Z,20.98
2022-08-30T06:32:38.993Z,21.10
2022-08-30T06:33:41.249Z,21.25
2022-08-30T06:34:43.429Z,21.37
2022-08-30T06:35:58.363Z,21.49
2022-08-30T06:37:04.436Z,21.65
2022-08-30T06:38:06.656Z,21.77
2022-08-30T06:39:09.611Z,21.89
2022-08-30T06:40:13.543Z,22.01
2022-08-30T06:41:22.035Z,22.12
2022-08-30T06:42:30.641Z,22.21
2022-08-30T06:43:32.883Z,22.31
2022-08-30T06:44:35.166Z,22.42
2022-08-30T06:45:37.396Z,22.53
2022-08-30T06:46:39.750Z,22.63
2022-08-30T06:47:42.430Z,22.72
2022-08-30T06:48:48.411Z,22.81
2022-08-30T06:49:50.966Z,22.92
2022-08-30T06:50:54.953Z,23.01
2022-08-30T06:51:57.136Z,23.11
2022-08-30T06:53:05.883Z,23.19
2022-08-30T06:54:10.899Z,23.29
2022-08-30T06:55:16.393Z,23.39
2022-08-30T06:56:19.560Z,23.47
2022-08-30T06:57:21.792Z,23.56
2022-08-30T06:58:24.137Z,23.66
2022-08-30T06:59:27.274Z,23.73
2022-08-30T07:00:30.328Z,23.79
2022-08-30T07:01:33.029Z,23.90
2022-08-30T07:02:37.990Z,23.98
2022-08-30T07:03:40.504Z,24.06
2022-08-30T07:04:42.757Z,24.13
2022-08-30T07:05:47.409Z,24.20
2022-08-30T07:06:49.690Z,24.26
2022-08-30T07:07:54.957Z,24.34
2022-08-30T07:08:57.618Z,24.41
2022-08-30T07:10:03.795Z,24.51
2022-08-30T07:11:07.742Z,24.58
2022-08-30T07:12:18.886Z,24.68
2022-08-30T07:13:24.089Z,24.73
2022-08-30T07:14:26.305Z,24.82
2022-08-30T07:15:30.841Z,24.91
2022-08-30T07:16:40.408Z,25.00
2022-08-30T07:18:01.045Z,25.09
2022-08-30T07:19:05.529Z,25.23
2022-08-30T07:20:10.839Z,25.32
2022-08-30T07:21:19.081Z,25.41
2022-08-30T07:22:24.550Z,25.51
2022-08-30T07:23:27.085Z,25.60
2022-08-30T07:24:31.012Z,25.68
2022-08-30T07:25:33.398Z,25.78
2022-08-30T07:26:42.769Z,25.89
2022-08-30T07:27:46.122Z,25.98
2022-08-30T07:28:48.761Z,26.07
2022-08-30T07:29:58.977Z,26.17
2022-08-30T07:31:01.281Z,26.25
2022-08-30T07:32:03.859Z,26.33
2022-08-30T07:33:06.545Z,26.44
2022-08-30T07:34:09.731Z,26.52
2022-08-30T07:35:11.928Z,26.61
2022-08-30T07:36:17.274Z,26.68
2022-08-30T07:37:19.476Z,26.76
2022-08-30T07:38:21.647Z,26.85
2022-08-30T07:39:24.045Z,26.93
2022-08-30T07:40:27.386Z,27.02
2022-08-30T07:41:36.459Z,27.10
2022-08-30T07:42:38.895Z,27.18
2022-08-30T07:43:47.089Z,27.28
2022-08-30T07:44:51.086Z,27.37
2022-08-30T07:45:56.072Z,27.47
2022-08-30T07:46:59.135Z,27.55
2022-08-30T07:48:01.732Z,27.63
2022-08-30T07:49:04.608Z,27.71
2022-08-30T07:50:07.703Z,27.80
2022-08-30T07:51:18.961Z,27.88
2022-08-30T07:52:21.190Z,27.94
2022-08-30T07:53:23.858Z,28.02
2022-08-30T07:54:26.029Z,28.08
2022-08-30T07:55:28.183Z,28.16
2022-08-30T07:56:33.365Z,28.23
2022-08-30T07:57:35.634Z,28.33
2022-08-30T07:58:38.255Z,28.37
2022-08-30T07:59:42.694Z,28.44
2022-08-30T08:00:44.991Z,28.53
2022-08-30T08:01:47.212Z,28.57
2022-08-30T08:02:49.513Z,28.64
2022-08-30T08:03:58.908Z,28.70
2022-08-30T08:05:02.111Z,28.74
2022-08-30T08:06:07.036Z,28.80
2022-08-30T08:07:09.252Z,28.83
2022-08-30T08:08:13.265Z,28.88
2022-08-30T08:09:15.549Z,28.91
2022-08-30T08:10:17.778Z,28.95
2022-08-30T08:11:23.655Z,29.00
2022-08-30T08:12:26.238Z,29.02
2022-08-30T08:13:32.805Z,29.06
2022-08-30T08:14:39.574Z,29.10
2022-08-30T08:15:41.811Z,29.12
2022-08-30T08:16:48.144Z,29.17
2022-08-30T08:17:50.318Z,29.22
2022-08-30T08:18:53.499Z,29.25
2022-08-30T08:19:55.764Z,29.27
2022-08-30T08:20:59.071Z,29.32
2022-08-30T08:22:20.465Z,29.35
2022-08-30T08:23:23.529Z,29.41
2022-08-30T08:24:33.755Z,29.48
2022-08-30T08:25:40.761Z,29.50
2022-08-30T08:26:45.317Z,29.53
2022-08-30T08:27:51.383Z,29.57
2022-08-30T08:28:53.689Z,29.60
2022-08-30T08:30:03.359Z,29.64
2022-08-30T08:31:15.324Z,29.69
2022-08-30T08:32:18.106Z,29.72
2022-08-30T08:33:20.517Z,29.75
2022-08-30T08:34:23.802Z,29.81
2022-08-30T08:35:26.066Z,29.85
2022-08-30T08:36:30.413Z,29.88
2022-08-30T08:37:36.115Z,29.91
2022-08-30T08:38:38.305Z,29.93
2022-08-30T08:39:40.506Z,29.98
2022-08-30T08:41:02.768Z,30.01
2022-08-30T08:42:24.565Z,30.05
2022-08-30T08:43:27.242Z,30.10
2022-08-30T08:46:06.366Z,30.20
2022-08-30T08:47:16.208Z,30.25
2022-08-30T08:48:24.714Z,30.28
2022-08-30T08:49:33.976Z,30.30
2022-08-30T08:50:36.995Z,30.32
2022-08-30T08:52:02.835Z,30.34
2022-08-30T08:53:46.299Z,30.36
2022-08-30T08:54:56.432Z,30.36
2022-08-30T08:56:05.374Z,30.37
2022-08-30T08:57:13.664Z,30.36
2022-08-30T08:58:30.571Z,30.36
2022-08-30T08:59:32.785Z,30.37
2022-08-30T09:00:35.023Z,30.38
2022-08-30T09:01:39.201Z,30.39
2022-08-30T09:02:48.242Z,30.40
2022-08-30T09:03:52.617Z,30.42
2022-08-30T09:04:57.680Z,30.43
2022-08-30T09:06:04.177Z,30.47
2022-08-30T09:07:21.943Z,30.50
2022-08-30T09:08:27.521Z,30.51
2022-08-30T09:09:41.874Z,30.54
2022-08-30T09:11:01.882Z,30.58
2022-08-30T09:12:06.331Z,30.59
2022-08-30T09:13:13.719Z,30.64
2022-08-30T09:14:19.608Z,30.67
2022-08-30T09:15:29.806Z,30.69
2022-08-30T09:16:57.807Z,30.74
2022-08-30T09:18:02.438Z,30.76
2022-08-30T09:19:05.257Z,30.80
2022-08-30T09:20:09.988Z,30.83
2022-08-30T09:21:14.330Z,30.86
2022-08-30T09:22:32.541Z,30.88
2022-08-30T09:23:34.722Z,30.92
2022-08-30T09:24:42.877Z,30.96
2022-08-30T09:26:04.665Z,31.00
2022-08-30T09:27:24.057Z,31.01
2022-08-30T09:28:33.108Z,31.02
2022-08-30T09:29:35.275Z,31.00
2022-08-30T09:30:38.249Z,30.99
2022-08-30T09:31:52.888Z,30.96
2022-08-30T09:33:07.859Z,30.92
2022-08-30T09:34:19.194Z,30.86
2022-08-30T09:35:25.588Z,30.82
2022-08-30T09:36:39.705Z,30.75
2022-08-30T09:37:53.096Z,30.67
2022-08-30T09:39:05.724Z,30.60
2022-08-30T09:40:15.437Z,30.51
2022-08-30T09:41:52.359Z,30.38
2022-08-30T09:43:20.641Z,30.29
2022-08-30T09:44:28.170Z,30.20
2022-08-30T09:45:37.292Z,30.15
2022-08-30T09:47:00.303Z,30.11
2022-08-30T09:48:23.935Z,30.06
2022-08-30T09:49:45.957Z,30.03
2022-08-30T09:50:56.011Z,30.01
2022-08-30T09:52:12.160Z,30.00
2022-08-30T09:53:23.378Z,29.99
2022-08-30T09:54:46.077Z,29.96
2022-08-30T09:55:59.909Z,29.92
2022-08-30T09:57:13.235Z,29.88
2022-08-30T09:58:40.922Z,29.85
2022-08-30T10:00:04.971Z,29.78
2022-08-30T10:01:11.981Z,29.75
2022-08-30T10:02:39.214Z,29.73
2022-08-30T10:03:41.632Z,29.70
2022-08-30T10:04:52.847Z,29.68
2022-08-30T10:06:29.004Z,29.60
2022-08-30T10:07:53.726Z,29.53
2022-08-30T10:09:03.585Z,29.46
2022-08-30T10:10:14.566Z,29.44
2022-08-30T10:11:27.535Z,29.43
2022-08-30T10:12:43.884Z,29.41
2022-08-30T10:14:19.987Z,29.38
2022-08-30T10:15:30.923Z,29.36
2022-08-30T10:16:59.991Z,29.35
2022-08-30T10:18:40.683Z,29.34
2022-08-30T10:20:04.172Z,29.33
2022-08-30T10:21:25.604Z,29.34
2022-08-30T10:22:36.975Z,29.34
2022-08-30T10:23:49.332Z,29.37
2022-08-30T10:25:05.270Z,29.38
2022-08-30T10:26:20.009Z,29.40
2022-08-30T10:27:29.312Z,29.43
2022-08-30T10:28:37.795Z,29.45
2022-08-30T10:29:48.949Z,29.49
2022-08-30T10:31:03.258Z,29.49
2022-08-30T10:32:29.816Z,29.50
2022-08-30T10:33:42.703Z,29.52
2022-08-30T10:35:19.237Z,29.50
2022-08-30T10:36:33.805Z,29.48
2022-08-30T10:37:45.910Z,29.49
2022-08-30T10:38:56.595Z,29.45
2022-08-30T10:40:45.531Z,29.41
2022-08-30T10:42:17.584Z,29.39
2022-08-30T10:43:31.543Z,29.36
2022-08-30T10:44:41.212Z,29.33
2022-08-30T10:45:47.164Z,29.28
2022-08-30T10:48:47.481Z,29.17
2022-08-30T10:49:54.936Z,29.10
2022-08-30T10:51:06.922Z,29.07
2022-08-30T10:52:34.389Z,29.02
2022-08-30T10:53:44.693Z,28.99
2022-08-30T10:54:59.149Z,28.93
2022-08-30T10:56:08.750Z,28.92
2022-08-30T10:57:11.139Z,28.89
2022-08-30T10:58:15.941Z,28.89
2022-08-30T10:59:19.402Z,28.88
2022-08-30T11:00:29.275Z,28.88
2022-08-30T11:01:47.046Z,28.83
2022-08-30T11:03:13.943Z,28.83
2022-08-30T11:04:37.668Z,28.82
2022-08-30T11:05:55.188Z,28.82
2022-08-30T11:07:21.485Z,28.82
2022-08-30T11:09:07.710Z,28.82
2022-08-30T11:10:28.669Z,28.82
2022-08-30T11:11:58.848Z,28.82
2022-08-30T11:13:17.916Z,28.80
2022-08-30T11:14:25.386Z,28.80
2022-08-30T11:15:31.696Z,28.81
2022-08-30T11:16:43.350Z,28.82
2022-08-30T11:18:09.581Z,28.79
2022-08-30T11:19:24.479Z,28.80
2022-08-30T11:20:40.106Z,28.79
2022-08-30T11:21:46.342Z,28.78
2022-08-30T11:23:27.743Z,28.79
2022-08-30T11:25:31.099Z,28.75
2022-08-30T11:26:54.843Z,28.72
2022-08-30T11:27:58.529Z,28.68
2022-08-30T11:29:02.680Z,28.62
2022-08-30T11:30:27.363Z,28.58
2022-08-30T11:31:37.540Z,28.52
2022-08-30T11:33:18.622Z,28.46
2022-08-30T11:34:48.473Z,28.40
2022-08-30T11:35:53.831Z,28.33
2022-08-30T11:36:58.271Z,28.28
2022-08-30T11:38:17.077Z,28.23
2022-08-30T11:39:51.412Z,28.16
2022-08-30T11:41:12.792Z,28.09
2022-08-30T11:42:24.195Z,28.03
2022-08-30T11:43:43.586Z,27.98
2022-08-30T11:44:45.789Z,27.93
2022-08-30T11:45:52.458Z,27.87
2022-08-30T11:46:58.712Z,27.78
2022-08-30T11:48:07.491Z,27.74
2022-08-30T11:49:13.322Z,27.69
2022-08-30T11:50:23.420Z,27.64
2022-08-30T11:51:44.423Z,27.60
2022-08-30T11:53:04.077Z,27.56
2022-08-30T11:54:23.180Z,27.53
2022-08-30T11:55:42.634Z,27.49
2022-08-30T11:57:01.339Z,27.45
2022-08-30T11:58:44.074Z,27.40
2022-08-30T11:59:59.172Z,27.38
2022-08-30T12:01:50.350Z,27.34
2022-08-30T12:03:14.488Z,27.31
2022-08-30T12:04:19.884Z,27.28
2022-08-30T12:05:45.726Z,27.25
2022-08-30T12:07:04.346Z,27.24
2022-08-30T12:08:11.527Z,27.22
2022-08-30T12:09:25.730Z,27.19
2022-08-30T12:10:39.054Z,27.19
2022-08-30T12:12:08.704Z,27.13
2022-08-30T12:13:42.744Z,27.09
2022-08-30T12:14:49.605Z,27.08
2022-08-30T12:16:00.685Z,27.06
2022-08-30T12:17:29.157Z,27.02
2022-08-30T12:18:45.532Z,27.00
2022-08-30T12:19:50.557Z,26.93
2022-08-30T12:21:01.513Z,26.89
2022-08-30T12:22:08.573Z,26.85
2022-08-30T12:23:44.350Z,26.77
2022-08-30T12:24:51.891Z,26.70
2022-08-30T12:26:32.483Z,26.60
2022-08-30T12:27:35.559Z,26.56
2022-08-30T12:28:38.172Z,26.52
2022-08-30T12:29:52.728Z,26.45
2022-08-30T12:30:55.442Z,26.40
2022-08-30T12:31:59.360Z,26.32
2022-08-30T12:33:02.091Z,26.28
2022-08-30T12:34:08.287Z,26.23
2022-08-30T12:35:20.883Z,26.18
2022-08-30T12:36:52.821Z,26.12
2022-08-30T12:38:03.299Z,26.06
2022-08-30T12:39:14.316Z,26.01
2022-08-30T12:40:20.249Z,25.96
2022-08-30T12:41:23.912Z,25.91
2022-08-30T12:42:31.897Z,25.85
2022-08-30T12:43:40.407Z,25.80
2022-08-30T12:44:45.208Z,25.75
2022-08-30T12:45:50.754Z,25.68
2022-08-30T12:47:03.051Z,25.64
2022-08-30T12:48:11.233Z,25.58
2022-08-30T12:49:16.185Z,25.53
2022-08-30T12:50:25.608Z,25.49
2022-08-30T12:51:42.579Z,25.45
2022-08-30T12:52:49.934Z,25.39
2022-08-30T12:53:53.433Z,25.35
2022-08-30T12:55:19.142Z,25.32
2022-08-30T12:56:35.014Z,25.27
2022-08-30T12:58:09.353Z,25.20
2022-08-30T12:59:38.666Z,25.16
2022-08-30T13:00:46.157Z,25.12
2022-08-30T13:01:56.206Z,25.09
2022-08-30T13:03:02.374Z,25.07
2022-08-30T13:04:26.905Z,25.05
2022-08-30T13:05:45.456Z,25.01
2022-08-30T13:06:55.363Z,24.99
2022-08-30T13:08:19.959Z,24.99
2022-08-30T13:09:40.010Z,24.96
2022-08-30T13:11:07.383Z,24.96
2022-08-30T13:12:22.258Z,24.95
2022-08-30T13:13:52.259Z,24.92
2022-08-30T13:15:23.943Z,24.91
2022-08-30T13:16:35.444Z,24.90
2022-08-30T13:17:39.654Z,24.88
2022-08-30T13:18:41.912Z,24.85
2022-08-30T13:19:57.602Z,24.83
2022-08-30T13:21:24.979Z,24.80
2022-08-30T13:22:40.171Z,24.78
2022-08-30T13:23:42.455Z,24.76
2022-08-30T13:24:44.619Z,24.73
2022-08-30T13:25:50.027Z,24.71
2022-08-30T13:26:54.085Z,24.69
2022-08-30T13:27:56.292Z,24.68
2022-08-30T13:29:02.586Z,24.67
2022-08-30T13:30:18.476Z,24.68
2022-08-30T13:31:21.236Z,24.66
2022-08-30T13:32:24.857Z,24.63
2022-08-30T13:33:27.387Z,24.64
2022-08-30T13:34:33.185Z,24.61
2022-08-30T13:35:35.462Z,24.59
2022-08-30T13:37:00.194Z,24.56
2022-08-30T13:38:03.037Z,24.55
2022-08-30T13:39:05.775Z,24.54
2022-08-30T13:40:10.504Z,24.52
2022-08-30T13:41:20.202Z,24.51
2022-08-30T13:42:37.780Z,24.51
2022-08-30T13:45:02.752Z,24.47
2022-08-30T13:46:06.794Z,24.45
2022-08-30T13:48:33.213Z,24.41
2022-08-30T13:49:44.613Z,24.41
2022-08-30T13:50:47.370Z,24.39
2022-08-30T13:52:18.571Z,24.38
2022-08-30T13:53:51.913Z,24.38
2022-08-30T13:54:44.140Z,24.37
2022-08-30T13:55:46.342Z,24.36
2022-08-30T13:56:54.874Z,24.36
2022-08-30T13:57:57.819Z,24.36
2022-08-30T13:59:02.746Z,24.35
2022-08-30T14:00:09.948Z,24.35
2022-08-30T14:01:14.633Z,24.34
2022-08-30T14:02:16.902Z,24.35
2022-08-30T14:03:19.234Z,24.35
2022-08-30T14:04:21.920Z,24.35
2022-08-30T14:09:38.855Z,24.38
2022-08-30T14:10:47.313Z,24.39
2022-08-30T14:11:49.980Z,24.40
2022-08-30T14:12:52.962Z,24.39
2022-08-30T14:15:17.601Z,24.38
2022-08-30T14:16:27.433Z,24.38
2022-08-30T14:17:32.775Z,24.40
2022-08-30T14:18:35.117Z,24.40
2022-08-30T14:19:39.704Z,24.40
2022-08-30T14:20:41.969Z,24.40
2022-08-30T14:21:49.041Z,24.40
2022-08-30T14:22:51.853Z,24.38
2022-08-30T14:23:56.649Z,24.38
2022-08-30T14:25:01.530Z,24.39
2022-08-30T14:26:11.613Z,24.38
2022-08-30T14:27:13.828Z,24.38
2022-08-30T14:28:16.107Z,24.36
2022-08-30T14:29:26.237Z,24.35
2022-08-30T14:30:30.746Z,24.34
2022-08-30T14:31:33.687Z,24.32
2022-08-30T14:32:36.023Z,24.31
2022-08-30T14:33:38.472Z,24.31
2022-08-30T14:34:40.732Z,24.31
2022-08-30T14:35:45.192Z,24.30
2022-08-30T14:36:48.546Z,24.29
2022-08-30T14:37:50.987Z,24.28
2022-08-30T14:38:53.937Z,24.28
2022-08-30T14:39:56.127Z,24.28
2022-08-30T14:40:58.425Z,24.26
2022-08-30T14:42:03.408Z,24.24
2022-08-30T14:43:09.901Z,24.24